Time;durP1;ratioP1;P1;durP2;ratioP2;P2;SDS_P1;SDS_P2;PMS_P1;PMS_P2;Temp;Humidity;BMP_temperature;BMP_pressure;BME280_temperature;BME280_humidity;BME280_pressure;Samples;Min_cycle;Max_cycle;Signal;HPM_P1;HPM_P2
2020/12/18 00:00:33;;;;;;;7.63;5.13;;;2.80;99.90;;;;;;5085670;28;20937;-77
2020/12/18 00:02:59;;;;;;;12.63;5.33;;;2.70;99.90;;;;;;5082416;28;20447;-77
2020/12/18 00:05:24;;;;;;;6.77;5.40;;;2.70;99.90;;;;;;5084535;28;20173;-77
2020/12/18 00:07:50;;;;;;;5.90;5.33;;;2.70;99.90;;;;;;5082806;28;20200;-77
2020/12/18 00:10:16;;;;;;;6.97;4.83;;;2.70;99.90;;;;;;5084491;28;20291;-77
2020/12/18 00:12:41;;;;;;;6.63;4.77;;;2.70;99.90;;;;;;5084251;28;20226;-77
2020/12/18 00:15:07;;;;;;;11.80;5.33;;;2.70;99.90;;;;;;5083149;28;20899;-77
2020/12/18 00:17:32;;;;;;;9.90;4.50;;;2.70;99.90;;;;;;5085471;28;20207;-77
2020/12/18 00:19:58;;;;;;;5.00;4.40;;;2.60;99.90;;;;;;5080821;28;20174;-77
2020/12/18 00:22:24;;;;;;;4.93;4.30;;;2.60;99.90;;;;;;5085364;28;20558;-77
2020/12/18 00:24:50;;;;;;;5.80;5.20;;;2.60;99.90;;;;;;5082484;28;20248;-76
2020/12/18 00:27:15;;;;;;;7.77;5.30;;;2.50;99.90;;;;;;5084235;28;20982;-77
2020/12/18 00:29:41;;;;;;;9.40;5.20;;;2.50;99.90;;;;;;5083924;28;20181;-77
2020/12/18 00:32:06;;;;;;;14.37;5.80;;;2.50;99.90;;;;;;5082777;28;20231;-77
2020/12/18 00:34:32;;;;;;;10.27;5.77;;;2.50;99.90;;;;;;5083661;28;20219;-76
2020/12/18 00:36:57;;;;;;;4.67;4.17;;;2.40;99.90;;;;;;5082113;28;20523;-77
2020/12/18 00:39:23;;;;;;;9.23;5.67;;;2.40;99.90;;;;;;5085075;28;20644;-77
2020/12/18 00:41:54;;;;;;;8.80;5.73;;;2.40;99.90;;;;;;5082617;28;20682;-77
2020/12/18 00:44:20;;;;;;;8.00;5.40;;;2.40;99.90;;;;;;5084543;28;20186;-77
2020/12/18 00:46:46;;;;;;;15.20;6.07;;;2.30;99.90;;;;;;5082705;28;20835;-77
2020/12/18 00:49:12;;;;;;;9.40;5.63;;;2.40;99.90;;;;;;5083314;28;20399;-77
2020/12/18 00:51:38;;;;;;;7.83;5.73;;;2.30;99.90;;;;;;5082131;28;20211;-77
2020/12/18 00:54:03;;;;;;;5.70;4.83;;;2.30;99.90;;;;;;5081993;28;20479;-77
2020/12/18 00:56:29;;;;;;;12.47;6.10;;;2.30;99.90;;;;;;5084885;28;20176;-77
2020/12/18 00:58:54;;;;;;;12.90;5.07;;;2.30;99.90;;;;;;5080081;28;20184;-77
2020/12/18 01:01:20;;;;;;;6.10;5.37;;;2.20;99.90;;;;;;5083842;28;20205;-77
2020/12/18 01:03:45;;;;;;;8.77;6.17;;;2.20;99.90;;;;;;5082508;28;20176;-77
2020/12/18 01:06:12;;;;;;;12.20;6.90;;;2.10;99.90;;;;;;5082593;28;20582;-76
2020/12/18 01:08:37;;;;;;;8.03;6.07;;;2.20;99.90;;;;;;5083794;28;20173;-77
2020/12/18 01:11:05;;;;;;;10.63;5.50;;;2.20;99.90;;;;;;5080036;28;20526;-77
2020/12/18 01:13:30;;;;;;;8.60;5.83;;;2.10;99.90;;;;;;5084666;28;20173;-77
2020/12/18 01:15:56;;;;;;;14.33;7.00;;;2.10;99.90;;;;;;5080905;28;20419;-77
2020/12/18 01:18:23;;;;;;;11.80;6.50;;;2.10;99.90;;;;;;5082719;28;20661;-77
2020/12/18 01:20:49;;;;;;;7.20;6.33;;;2.10;99.90;;;;;;5080410;28;20435;-77
2020/12/18 01:23:14;;;;;;;10.87;6.53;;;2.10;99.90;;;;;;5082880;28;20436;-77
2020/12/18 01:25:40;;;;;;;9.20;6.60;;;2.20;99.90;;;;;;5083084;28;20177;-76
2020/12/18 01:28:05;;;;;;;8.97;6.70;;;2.20;99.90;;;;;;5082598;28;20687;-77
2020/12/18 01:30:31;;;;;;;10.17;6.10;;;2.20;99.90;;;;;;5080535;28;20235;-77
2020/12/18 01:32:56;;;;;;;9.23;6.97;;;2.30;99.90;;;;;;5083396;28;20699;-77
2020/12/18 01:35:22;;;;;;;7.97;6.63;;;2.30;99.90;;;;;;5081748;28;20262;-77
2020/12/18 01:37:47;;;;;;;10.70;6.97;;;2.30;99.90;;;;;;5081202;28;20531;-77
2020/12/18 01:40:13;;;;;;;10.03;7.60;;;2.40;99.90;;;;;;5082981;28;20181;-77
2020/12/18 01:42:38;;;;;;;12.53;6.47;;;2.40;99.90;;;;;;5079849;28;20173;-77
2020/12/18 01:45:04;;;;;;;8.60;7.03;;;2.50;99.90;;;;;;5083700;28;20512;-76
2020/12/18 01:47:30;;;;;;;9.17;6.33;;;2.50;99.90;;;;;;5080551;28;20213;-77
2020/12/18 01:49:57;;;;;;;10.50;6.37;;;2.50;99.90;;;;;;5083127;28;20198;-76
2020/12/18 01:52:24;;;;;;;8.93;6.77;;;2.60;99.90;;;;;;5081522;28;20439;-77
2020/12/18 01:54:57;;;;;;;11.50;7.40;;;2.60;99.90;;;;;;5081974;28;20948;-76
2020/12/18 01:57:24;;;;;;;7.97;5.90;;;2.70;99.90;;;;;;5081418;28;20425;-77
2020/12/18 01:59:50;;;;;;;13.80;7.00;;;2.70;99.90;;;;;;5082066;28;20504;-77
2020/12/18 02:02:16;;;;;;;6.20;5.40;;;2.70;99.90;;;;;;5080485;28;20531;-77
2020/12/18 02:04:46;;;;;;;7.83;6.30;;;2.60;99.90;;;;;;5079090;28;20742;-76
2020/12/18 02:07:12;;;;;;;11.63;6.87;;;2.60;99.90;;;;;;5082815;28;20429;-77
2020/12/18 02:09:38;;;;;;;14.60;7.77;;;2.60;99.90;;;;;;5079197;28;20433;-77
2020/12/18 02:12:04;;;;;;;6.20;5.53;;;2.60;99.90;;;;;;5081972;28;20443;-77
2020/12/18 02:14:30;;;;;;;8.77;6.80;;;2.60;99.90;;;;;;5080090;28;20787;-77
2020/12/18 02:16:56;;;;;;;9.53;7.23;;;2.60;99.90;;;;;;5082335;28;20423;-76
2020/12/18 02:19:26;;;;;;;9.23;6.77;;;2.50;99.90;;;;;;5081390;28;20178;-77
2020/12/18 02:21:51;;;;;;;10.97;6.13;;;2.50;99.90;;;;;;5081991;28;20539;-78
2020/12/18 02:24:33;;;;;;;13.47;7.40;;;2.40;99.90;;;;;;5081711;28;20501;-77
2020/12/18 02:26:58;;;;;;;11.53;7.83;;;2.40;99.90;;;;;;5082673;28;20176;-77
2020/12/18 02:29:23;;;;;;;8.37;6.43;;;2.40;99.90;;;;;;5080700;28;20795;-77
2020/12/18 02:31:49;;;;;;;7.93;6.40;;;2.30;99.90;;;;;;5080014;28;20202;-77
2020/12/18 02:34:25;;;;;;;8.70;6.73;;;2.30;99.90;;;;;;5080542;28;20181;-77
2020/12/18 02:36:50;;;;;;;11.50;6.93;;;2.40;99.90;;;;;;5079780;28;20391;-76
2020/12/18 02:39:16;;;;;;;11.50;7.20;;;2.30;99.90;;;;;;5081588;28;20508;-77
2020/12/18 02:41:42;;;;;;;6.87;6.17;;;2.30;99.90;;;;;;5080429;28;20261;-78
2020/12/18 02:44:07;;;;;;;11.77;6.27;;;2.20;99.90;;;;;;5084217;28;20747;-77
2020/12/18 02:46:33;;;;;;;11.47;7.43;;;2.10;99.90;;;;;;5079992;28;20187;-77
2020/12/18 02:48:58;;;;;;;10.00;7.20;;;2.10;99.90;;;;;;5079075;28;20189;-77
2020/12/18 02:51:24;;;;;;;8.80;6.67;;;2.10;99.90;;;;;;5079500;28;20262;-77
2020/12/18 02:53:49;;;;;;;8.93;7.07;;;2.10;99.90;;;;;;5080944;28;20267;-77
2020/12/18 02:56:31;;;;;;;9.97;7.57;;;2.00;99.90;;;;;;5084870;28;20273;-76
2020/12/18 02:58:57;;;;;;;7.17;6.43;;;2.00;99.90;;;;;;5079744;28;20180;-77
2020/12/18 03:01:22;;;;;;;12.13;6.17;;;2.10;99.90;;;;;;5082045;28;20470;-77
2020/12/18 03:03:48;;;;;;;8.77;7.50;;;2.10;99.90;;;;;;5080902;28;20682;-77
2020/12/18 03:06:14;;;;;;;10.43;6.80;;;2.10;99.90;;;;;;5080270;28;20194;-77
2020/12/18 03:08:39;;;;;;;12.30;8.00;;;2.10;99.90;;;;;;5082214;28;20236;-77
2020/12/18 03:11:06;;;;;;;17.33;7.10;;;2.20;99.90;;;;;;5080489;28;20242;-78
2020/12/18 03:13:32;;;;;;;8.63;7.47;;;2.30;99.90;;;;;;5078974;28;20188;-77
2020/12/18 03:15:58;;;;;;;8.57;6.73;;;2.30;99.90;;;;;;5087382;28;20577;-77
2020/12/18 03:18:23;;;;;;;9.50;7.37;;;2.40;99.90;;;;;;5084932;28;20524;-77
2020/12/18 03:20:49;;;;;;;12.43;8.10;;;2.40;99.90;;;;;;5087578;28;20229;-77
2020/12/18 03:23:14;;;;;;;9.83;7.87;;;2.50;99.90;;;;;;5088064;28;20176;-77
2020/12/18 03:25:40;;;;;;;9.90;7.30;;;2.50;99.90;;;;;;5085939;28;20294;-77
2020/12/18 03:28:05;;;;;;;10.73;7.27;;;2.60;99.90;;;;;;5087386;28;20182;-77
2020/12/18 03:30:31;;;;;;;12.70;7.80;;;2.60;99.90;;;;;;5085412;28;20257;-77
2020/12/18 03:32:56;;;;;;;9.63;6.70;;;2.70;99.90;;;;;;5087236;28;20579;-77
2020/12/18 03:35:22;;;;;;;9.10;6.97;;;2.70;99.90;;;;;;5086564;28;20265;-77
2020/12/18 03:37:47;;;;;;;15.17;8.27;;;2.80;99.90;;;;;;5087952;28;20180;-77
2020/12/18 03:40:16;;;;;;;11.50;8.00;;;2.80;99.90;;;;;;5091239;28;20683;-77
2020/12/18 03:42:42;;;;;;;10.43;8.03;;;2.90;99.90;;;;;;5087589;28;20180;-77
2020/12/18 03:45:07;;;;;;;9.40;8.20;;;3.00;99.90;;;;;;5088837;28;20432;-77
2020/12/18 03:47:33;;;;;;;12.83;7.30;;;3.00;99.90;;;;;;5085506;28;20514;-77
2020/12/18 03:49:58;;;;;;;12.53;8.57;;;3.00;99.90;;;;;;5087165;28;20671;-77
2020/12/18 03:52:24;;;;;;;12.93;8.80;;;3.00;99.90;;;;;;5087933;28;20203;-77
2020/12/18 03:54:50;;;;;;;12.20;8.97;;;3.20;99.90;;;;;;5087316;28;20195;-76
2020/12/18 03:57:15;;;;;;;13.53;8.50;;;3.20;99.90;;;;;;5089457;28;20263;-77
2020/12/18 03:59:40;;;;;;;15.67;9.00;;;3.30;99.90;;;;;;5086772;28;20193;-77
2020/12/18 04:02:06;;;;;;;9.43;7.43;;;3.30;99.90;;;;;;5087273;28;20195;-77
2020/12/18 04:04:32;;;;;;;13.03;8.50;;;3.30;99.90;;;;;;5085682;28;20671;-77
2020/12/18 04:06:57;;;;;;;10.70;7.57;;;3.30;99.90;;;;;;5085720;28;20208;-77
2020/12/18 04:09:23;;;;;;;12.07;9.40;;;3.30;99.90;;;;;;5086167;28;20182;-76
2020/12/18 04:11:49;;;;;;;10.03;8.90;;;3.40;99.90;;;;;;5084200;28;20211;-78
2020/12/18 04:14:14;;;;;;;10.40;7.70;;;3.40;99.90;;;;;;5086314;28;20178;-78
2020/12/18 04:16:40;;;;;;;11.00;9.20;;;3.50;99.90;;;;;;5084486;28;20460;-78
2020/12/18 04:19:05;;;;;;;12.93;10.07;;;3.40;99.90;;;;;;5088850;28;20316;-77
2020/12/18 04:21:31;;;;;;;11.70;8.57;;;3.50;99.90;;;;;;5085777;28;20217;-77
2020/12/18 04:23:57;;;;;;;9.93;8.50;;;3.50;99.90;;;;;;5086489;28;20592;-77
2020/12/18 04:26:23;;;;;;;11.37;9.20;;;3.60;99.90;;;;;;5082276;28;20440;-77
2020/12/18 04:28:48;;;;;;;12.40;9.60;;;3.60;99.90;;;;;;5083749;28;20179;-77
2020/12/18 04:31:14;;;;;;;14.17;8.83;;;3.50;99.90;;;;;;5083071;28;20225;-77
2020/12/18 04:33:39;;;;;;;11.57;8.20;;;3.60;99.90;;;;;;5084929;28;20181;-77
2020/12/18 04:36:05;;;;;;;17.60;9.73;;;3.50;99.90;;;;;;5081786;28;20252;-77
2020/12/18 04:38:30;;;;;;;11.27;8.23;;;3.50;99.90;;;;;;5083721;28;20387;-77
2020/12/18 04:40:56;;;;;;;14.13;8.57;;;3.40;99.90;;;;;;5082861;28;20210;-77
2020/12/18 04:43:22;;;;;;;12.93;8.70;;;3.40;99.90;;;;;;5080721;28;20212;-77
2020/12/18 04:45:47;;;;;;;16.83;9.70;;;3.40;99.90;;;;;;5082814;28;20544;-78
2020/12/18 04:48:16;;;;;;;9.60;8.13;;;3.40;99.90;;;;;;5082740;28;20443;-77
2020/12/18 04:50:44;;;;;;;11.20;9.20;;;3.30;99.90;;;;;;5084566;28;20244;-77
2020/12/18 04:53:11;;;;;;;10.43;8.50;;;3.20;99.90;;;;;;5082706;28;20467;-77
2020/12/18 04:55:41;;;;;;;12.20;9.27;;;3.20;99.90;;;;;;5087802;28;20471;-77
2020/12/18 04:58:07;;;;;;;13.90;8.90;;;3.10;99.90;;;;;;5082282;28;20405;-77
2020/12/18 05:00:34;;;;;;;10.87;8.60;;;3.10;99.90;;;;;;5084323;28;20873;-77
2020/12/18 05:03:00;;;;;;;10.83;9.10;;;3.00;99.90;;;;;;5082211;28;20186;-79
2020/12/18 05:05:26;;;;;;;10.37;8.07;;;3.00;99.90;;;;;;5082109;28;20460;-77
2020/12/18 05:07:52;;;;;;;13.77;8.50;;;2.90;99.90;;;;;;5083312;28;20424;-76
2020/12/18 05:10:21;;;;;;;12.80;8.43;;;2.90;99.90;;;;;;5087203;28;20688;-77
2020/12/18 05:12:46;;;;;;;10.90;9.00;;;2.80;99.90;;;;;;5082401;28;20244;-76
2020/12/18 05:15:12;;;;;;;16.30;9.60;;;2.80;99.90;;;;;;5083449;28;20440;-77
2020/12/18 05:17:37;;;;;;;13.20;8.63;;;2.80;99.90;;;;;;5082977;28;20223;-77
2020/12/18 05:20:04;;;;;;;17.07;9.57;;;2.80;99.90;;;;;;5082208;28;20529;-77
2020/12/18 05:22:29;;;;;;;13.20;8.50;;;2.70;99.90;;;;;;5089058;28;20379;-77
2020/12/18 05:24:55;;;;;;;13.87;9.20;;;2.70;99.90;;;;;;5082787;28;20501;-76
2020/12/18 05:27:22;;;;;;;15.83;9.30;;;2.70;99.90;;;;;;5081059;28;20722;-76
2020/12/18 05:29:49;;;;;;;13.73;8.90;;;2.60;99.90;;;;;;5081911;28;20178;-77
2020/12/18 05:32:15;;;;;;;10.50;8.80;;;2.60;99.90;;;;;;5080864;28;20892;-77
2020/12/18 05:34:41;;;;;;;14.43;10.17;;;2.60;99.90;;;;;;5084380;28;20443;-77
2020/12/18 05:37:07;;;;;;;15.03;10.57;;;2.60;99.90;;;;;;5081260;28;20411;-77
2020/12/18 05:39:37;;;;;;;14.10;9.50;;;2.60;99.90;;;;;;5079762;28;20216;-77
2020/12/18 05:42:04;;;;;;;15.50;11.00;;;2.60;99.90;;;;;;5080318;28;20467;-77
2020/12/18 05:44:31;;;;;;;13.10;9.10;;;2.60;99.90;;;;;;5081365;28;20547;-77
2020/12/18 05:47:05;;;;;;;14.97;9.77;;;2.60;99.90;;;;;;5082592;28;20443;-76
2020/12/18 05:49:36;;;;;;;13.37;9.80;;;2.60;99.90;;;;;;5083266;28;20917;-76
2020/12/18 05:52:03;;;;;;;15.70;8.57;;;2.60;99.90;;;;;;5080282;28;20502;-76
2020/12/18 05:54:34;;;;;;;15.33;9.57;;;2.60;99.90;;;;;;5088629;28;20421;-76
2020/12/18 05:57:14;;;;;;;16.23;11.07;;;2.60;99.90;;;;;;5083540;28;20424;-76
2020/12/18 05:59:44;;;;;;;13.17;9.10;;;2.70;99.90;;;;;;5080966;28;20973;-76
2020/12/18 06:02:15;;;;;;;13.20;9.77;;;2.70;99.90;;;;;;5079193;28;20424;-76
2020/12/18 06:04:42;;;;;;;13.23;9.77;;;2.70;99.90;;;;;;5078860;28;20488;-76
2020/12/18 06:07:08;;;;;;;10.10;8.30;;;2.70;99.90;;;;;;5083160;28;20418;-77
2020/12/18 06:09:38;;;;;;;14.73;9.30;;;2.70;99.90;;;;;;5080066;28;20845;-76
2020/12/18 06:12:12;;;;;;;29.23;18.53;;;2.80;99.90;;;;;;5084002;28;20266;-76
2020/12/18 06:14:38;;;;;;;14.87;11.27;;;2.80;99.90;;;;;;5079679;28;20439;-77
2020/12/18 06:17:08;;;;;;;11.47;8.33;;;2.90;99.90;;;;;;5083018;28;20767;-76
2020/12/18 06:19:39;;;;;;;12.63;10.10;;;2.90;99.90;;;;;;5082385;28;20671;-76
2020/12/18 06:22:10;;;;;;;12.80;9.77;;;2.90;99.90;;;;;;5078034;28;20468;-77
2020/12/18 06:24:41;;;;;;;13.63;10.10;;;2.80;99.90;;;;;;5082984;28;20811;-76
2020/12/18 06:27:11;;;;;;;17.77;10.70;;;2.80;99.90;;;;;;5081291;28;20423;-77
2020/12/18 06:29:36;;;;;;;15.67;9.37;;;2.80;99.90;;;;;;5078499;28;20428;-77
2020/12/18 06:32:23;;;;;;;13.20;9.43;;;2.80;99.90;;;;;;5081681;28;20460;-77
2020/12/18 06:34:49;;;;;;;13.57;10.40;;;2.80;99.90;;;;;;5080691;28;20197;-77
2020/12/18 06:37:31;;;;;;;15.90;10.63;;;2.80;99.90;;;;;;5081097;28;20466;-77
2020/12/18 06:39:58;;;;;;;19.10;11.40;;;2.80;99.90;;;;;;5079125;28;20263;-77
2020/12/18 06:42:26;;;;;;;15.83;9.80;;;2.70;99.90;;;;;;5083892;28;20455;-77
2020/12/18 06:44:53;;;;;;;21.00;10.40;;;2.60;99.90;;;;;;5085958;28;20427;-81
2020/12/18 06:47:27;;;;;;;18.90;10.83;;;2.60;99.90;;;;;;5086304;28;20466;-75
2020/12/18 06:49:58;;;;;;;18.43;11.20;;;2.50;99.90;;;;;;5086186;28;20475;-76
2020/12/18 06:52:45;;;;;;;20.60;10.90;;;2.50;99.90;;;;;;5082377;28;20417;-75
2020/12/18 06:55:29;;;;;;;11.37;9.63;;;2.50;99.90;;;;;;5083095;28;20434;-76
2020/12/18 06:58:09;;;;;;;19.10;10.70;;;2.50;99.90;;;;;;5082133;28;20408;-76
2020/12/18 07:00:52;;;;;;;11.03;9.00;;;2.50;99.90;;;;;;5080583;28;20759;-75
2020/12/18 07:03:36;;;;;;;15.40;9.80;;;2.50;99.90;;;;;;5086472;28;20450;-75
2020/12/18 07:06:07;;;;;;;17.17;11.00;;;2.50;99.90;;;;;;5080563;28;20457;-76
2020/12/18 07:08:35;;;;;;;12.73;9.13;;;2.40;99.90;;;;;;5081857;28;20423;-75
2020/12/18 07:11:19;;;;;;;13.73;9.47;;;2.50;99.90;;;;;;5082975;28;20477;-75
2020/12/18 07:13:47;;;;;;;16.30;10.47;;;2.50;99.90;;;;;;5079519;28;20521;-76
2020/12/18 07:16:14;;;;;;;18.30;10.80;;;2.50;99.90;;;;;;5081846;28;20436;-76
2020/12/18 07:18:41;;;;;;;18.00;12.90;;;2.60;99.90;;;;;;5079062;28;20752;-75
2020/12/18 07:21:09;;;;;;;16.03;11.67;;;2.70;99.90;;;;;;5077824;28;20454;-75
2020/12/18 07:23:37;;;;;;;19.07;12.10;;;2.70;99.90;;;;;;5084089;28;20451;-75
2020/12/18 07:26:04;;;;;;;13.57;10.20;;;2.80;99.90;;;;;;5079721;28;20434;-75
2020/12/18 07:28:31;;;;;;;14.30;10.93;;;2.80;99.90;;;;;;5081029;28;20423;-75
2020/12/18 07:30:57;;;;;;;18.03;11.23;;;2.80;99.90;;;;;;5080284;28;20975;-76
2020/12/18 07:33:24;;;;;;;18.53;11.10;;;2.90;99.90;;;;;;5077925;28;20471;-75
2020/12/18 07:35:55;;;;;;;16.70;11.30;;;3.00;99.90;;;;;;5081183;28;20826;-75
2020/12/18 07:38:28;;;;;;;15.60;12.03;;;3.00;99.90;;;;;;5078836;28;20805;-75
2020/12/18 07:40:56;;;;;;;25.00;13.20;;;3.10;99.90;;;;;;5079209;28;20460;-75
2020/12/18 07:43:26;;;;;;;18.53;12.00;;;3.10;99.90;;;;;;5078820;28;20478;-76
2020/12/18 07:45:56;;;;;;;22.70;13.00;;;3.30;99.90;;;;;;5082111;28;20415;-75
2020/12/18 07:48:28;;;;;;;18.73;13.07;;;3.30;99.90;;;;;;5078716;28;20442;-75
2020/12/18 07:51:00;;;;;;;22.80;13.53;;;3.40;99.90;;;;;;5079767;28;20474;-75
2020/12/18 07:53:28;;;;;;;21.37;12.17;;;3.40;99.90;;;;;;5079553;28;20435;-76
2020/12/18 07:56:01;;;;;;;22.67;12.50;;;3.40;99.90;;;;;;5082697;28;20439;-75
2020/12/18 07:58:27;;;;;;;21.37;13.93;;;3.60;99.90;;;;;;5080602;28;20434;-76
2020/12/18 08:01:10;;;;;;;17.10;12.30;;;3.60;99.90;;;;;;5079083;28;20896;-75
2020/12/18 08:03:51;;;;;;;16.87;12.87;;;3.70;99.90;;;;;;5082928;28;20420;-75
2020/12/18 08:06:21;;;;;;;19.70;13.67;;;3.80;99.90;;;;;;5083473;28;20439;-75
2020/12/18 08:08:58;;;;;;;26.93;13.43;;;4.00;99.90;;;;;;5083818;28;20435;-76
2020/12/18 08:11:29;;;;;;;18.87;13.43;;;4.10;99.90;;;;;;5084119;28;20474;-76
2020/12/18 08:13:56;;;;;;;23.73;14.87;;;4.10;99.90;;;;;;5085336;28;20419;-76
2020/12/18 08:16:26;;;;;;;20.73;13.30;;;4.10;99.90;;;;;;5084529;28;20438;-76
2020/12/18 08:18:58;;;;;;;23.83;13.37;;;4.20;99.90;;;;;;5085092;28;20420;-76
2020/12/18 08:21:28;;;;;;;21.07;16.20;;;4.30;99.90;;;;;;5083252;28;20543;-75
2020/12/18 08:24:30;;;;;;;19.50;14.30;;;4.40;99.90;;;;;;5083779;28;20433;-76
2020/12/18 08:27:22;;;;;;;16.20;11.93;;;4.50;99.90;;;;;;5085980;28;20454;-75
2020/12/18 08:29:48;;;;;;;16.80;11.77;;;4.60;99.90;;;;;;5082875;28;20438;-75
2020/12/18 08:32:35;;;;;;;17.30;13.50;;;4.70;99.90;;;;;;5084901;28;20443;-75
2020/12/18 08:35:03;;;;;;;19.40;14.00;;;4.80;99.90;;;;;;5084576;28;20460;-76
2020/12/18 08:37:29;;;;;;;25.50;14.23;;;4.90;99.90;;;;;;5083655;28;20422;-76
2020/12/18 08:39:54;;;;;;;23.40;13.93;;;5.00;99.90;;;;;;5082802;28;20440;-75
2020/12/18 08:42:20;;;;;;;19.20;15.70;;;5.10;99.90;;;;;;5083817;28;20827;-76
2020/12/18 08:44:46;;;;;;;23.60;14.17;;;5.20;99.90;;;;;;5082857;28;20307;-75
2020/12/18 08:47:26;;;;;;;24.93;15.93;;;5.30;99.90;;;;;;5084913;28;20978;-76
2020/12/18 08:49:56;;;;;;;21.77;14.27;;;5.30;99.90;;;;;;5081905;28;20435;-76
2020/12/18 08:52:27;;;;;;;22.60;15.03;;;5.40;99.90;;;;;;5083387;28;20480;-76
2020/12/18 08:55:07;;;;;;;21.73;12.60;;;5.50;99.90;;;;;;5083233;28;20468;-75
2020/12/18 08:57:37;;;;;;;26.57;15.20;;;5.60;99.90;;;;;;5084360;28;20446;-76
2020/12/18 09:00:14;;;;;;;25.10;14.13;;;5.70;99.90;;;;;;5082473;28;20435;-75
2020/12/18 09:02:42;;;;;;;22.60;14.83;;;5.80;99.90;;;;;;5088099;28;20934;-75
2020/12/18 09:05:25;;;;;;;20.30;13.77;;;5.90;99.90;;;;;;5081346;28;20922;-76
2020/12/18 09:08:08;;;;;;;18.57;13.67;;;6.00;99.90;;;;;;5080651;28;20512;-75
2020/12/18 09:10:42;;;;;;;17.40;13.50;;;6.10;99.90;;;;;;5084517;28;21077;-76
2020/12/18 09:13:22;;;;;;;23.47;12.33;;;6.20;99.90;;;;;;5081944;28;20796;-75
2020/12/18 09:16:08;;;;;;;19.20;14.30;;;6.30;99.90;;;;;;5081934;28;20415;-76
2020/12/18 09:18:38;;;;;;;20.23;13.80;;;6.40;99.90;;;;;;5077078;28;20440;-76
2020/12/18 09:21:09;;;;;;;21.00;16.97;;;6.50;99.90;;;;;;5083918;28;20454;-76
2020/12/18 09:23:35;;;;;;;24.07;15.87;;;6.60;99.90;;;;;;5083008;28;20430;-75
2020/12/18 09:26:01;;;;;;;19.67;15.63;;;6.90;99.90;;;;;;5080911;28;20445;-75
2020/12/18 09:28:33;;;;;;;16.10;12.70;;;7.70;99.90;;;;;;5082031;28;20477;-75
2020/12/18 09:30:59;;;;;;;16.20;12.10;;;8.80;99.90;;;;;;5084667;28;20479;-76
2020/12/18 09:33:26;;;;;;;15.63;12.80;;;10.00;99.90;;;;;;5079680;28;20438;-77
2020/12/18 09:35:59;;;;;;;13.23;11.00;;;10.90;99.90;;;;;;5082115;28;20206;-76
2020/12/18 09:38:27;;;;;;;14.67;10.63;;;11.40;99.90;;;;;;5082795;28;20949;-76
2020/12/18 09:40:54;;;;;;;12.20;10.07;;;11.20;99.90;;;;;;5085338;28;20556;-76
2020/12/18 09:43:19;;;;;;;11.97;10.50;;;11.10;99.90;;;;;;5084154;28;20431;-75
2020/12/18 09:45:46;;;;;;;16.60;11.37;;;11.30;99.90;;;;;;5081365;28;20438;-77
2020/12/18 09:48:11;;;;;;;15.30;11.40;;;11.50;99.90;;;;;;5080799;28;20194;-77
2020/12/18 09:50:37;;;;;;;14.73;11.23;;;11.70;99.90;;;;;;5083057;28;21033;-76
2020/12/18 09:53:04;;;;;;;14.73;11.27;;;11.60;99.90;;;;;;5082277;28;20195;-75
2020/12/18 09:55:30;;;;;;;13.77;10.30;;;11.90;99.90;;;;;;5085319;28;20819;-76
2020/12/18 09:57:55;;;;;;;15.63;11.87;;;11.70;99.90;;;;;;5083771;28;20422;-76
2020/12/18 10:00:21;;;;;;;12.27;10.97;;;11.40;99.90;;;;;;5082235;28;20988;-76
2020/12/18 10:02:47;;;;;;;20.33;12.73;;;10.90;99.90;;;;;;5078247;28;20191;-76
2020/12/18 10:05:12;;;;;;;20.17;12.47;;;10.90;99.90;;;;;;5082680;28;20189;-75
2020/12/18 10:07:38;;;;;;;19.13;10.30;;;11.20;99.90;;;;;;5081263;28;20195;-76
2020/12/18 10:10:04;;;;;;;17.63;11.27;;;11.60;99.90;;;;;;5080752;28;20530;-76
2020/12/18 10:12:29;;;;;;;22.03;10.40;;;11.90;99.90;;;;;;5077583;28;20203;-76
2020/12/18 10:14:55;;;;;;;14.40;11.13;;;12.30;99.90;;;;;;5081995;28;20430;-76
2020/12/18 10:17:20;;;;;;;14.70;10.87;;;12.40;99.90;;;;;;5082385;28;20205;-76
2020/12/18 10:19:46;;;;;;;12.53;11.23;;;12.40;99.90;;;;;;5082186;28;20204;-76
2020/12/18 10:22:12;;;;;;;14.40;11.17;;;12.50;99.90;;;;;;5080098;28;20219;-75
2020/12/18 10:24:37;;;;;;;14.93;10.73;;;12.50;99.90;;;;;;5080997;28;20653;-75
2020/12/18 10:27:03;;;;;;;17.53;12.07;;;12.60;99.90;;;;;;5082242;28;20195;-75
2020/12/18 10:29:28;;;;;;;14.63;10.50;;;12.50;99.90;;;;;;5081174;28;20212;-75
2020/12/18 10:31:58;;;;;;;13.00;11.53;;;12.50;99.90;;;;;;5081403;28;20285;-75
2020/12/18 10:34:24;;;;;;;14.47;10.80;;;12.60;99.90;;;;;;5079421;28;20541;-75
2020/12/18 10:36:53;;;;;;;12.43;10.97;;;12.70;99.90;;;;;;5082377;28;20432;-76
2020/12/18 10:39:19;;;;;;;18.40;12.27;;;12.90;99.90;;;;;;5079577;28;20226;-76
2020/12/18 10:41:45;;;;;;;17.20;11.33;;;12.90;99.90;;;;;;5084050;28;20974;-75
2020/12/18 10:44:11;;;;;;;16.30;10.63;;;12.80;99.90;;;;;;5080149;28;20436;-75
2020/12/18 10:46:38;;;;;;;23.63;10.90;;;12.80;99.90;;;;;;5080167;28;20267;-76
2020/12/18 10:49:03;;;;;;;15.43;10.40;;;12.70;99.90;;;;;;5082483;28;20207;-76
2020/12/18 10:51:29;;;;;;;13.10;10.23;;;12.60;99.90;;;;;;5080201;28;20512;-76
2020/12/18 10:53:54;;;;;;;15.67;10.57;;;12.50;99.90;;;;;;5082308;28;20195;-76
2020/12/18 10:56:20;;;;;;;20.63;11.57;;;12.50;99.90;;;;;;5084144;28;20259;-76
2020/12/18 10:58:45;;;;;;;14.13;11.90;;;12.50;99.90;;;;;;5079670;28;20634;-75
2020/12/18 11:01:17;;;;;;;15.17;11.37;;;12.30;99.90;;;;;;5082718;28;20207;-75
2020/12/18 11:03:43;;;;;;;17.13;10.33;;;12.30;99.90;;;;;;5079249;28;20181;-76
2020/12/18 11:06:08;;;;;;;15.13;9.90;;;12.10;99.90;;;;;;5082643;28;20922;-76
2020/12/18 11:08:34;;;;;;;12.33;10.93;;;12.20;99.90;;;;;;5080050;28;20633;-75
2020/12/18 11:10:59;;;;;;;17.00;10.40;;;12.40;99.90;;;;;;5076171;28;20212;-76
2020/12/18 11:13:25;;;;;;;12.70;10.77;;;12.30;99.90;;;;;;5080276;28;20237;-76
2020/12/18 11:15:50;;;;;;;15.30;11.60;;;12.40;99.90;;;;;;5078703;28;20188;-76
2020/12/18 11:18:16;;;;;;;16.97;12.10;;;12.40;99.90;;;;;;5082143;28;20187;-76
2020/12/18 11:20:41;;;;;;;17.60;11.83;;;12.30;99.90;;;;;;5077949;28;20203;-76
2020/12/18 11:23:07;;;;;;;17.43;12.33;;;12.50;99.90;;;;;;5081140;28;20264;-74
2020/12/18 11:25:32;;;;;;;22.00;12.90;;;12.30;99.90;;;;;;5083018;28;20228;-75
2020/12/18 11:27:58;;;;;;;19.63;10.63;;;12.20;99.90;;;;;;5081838;28;20263;-75
2020/12/18 11:30:23;;;;;;;18.87;11.53;;;12.10;99.90;;;;;;5080191;28;20589;-76
2020/12/18 11:32:49;;;;;;;20.57;11.07;;;12.00;99.90;;;;;;5081301;28;20176;-76
2020/12/18 11:35:16;;;;;;;23.93;12.20;;;12.10;99.90;;;;;;5080902;28;20206;-76
2020/12/18 11:37:42;;;;;;;15.90;11.97;;;11.90;99.90;;;;;;5083072;28;20504;-76
2020/12/18 11:40:07;;;;;;;15.03;11.97;;;11.90;99.90;;;;;;5086443;28;20942;-75
2020/12/18 11:42:33;;;;;;;17.87;12.63;;;12.00;99.90;;;;;;5086128;28;20203;-76
2020/12/18 11:44:58;;;;;;;16.87;12.20;;;12.00;99.90;;;;;;5082881;28;20185;-75
2020/12/18 11:47:26;;;;;;;21.83;11.53;;;12.00;99.90;;;;;;5084538;28;20678;-76
2020/12/18 11:49:52;;;;;;;18.90;12.27;;;12.10;99.90;;;;;;5084145;28;20179;-76
2020/12/18 11:52:17;;;;;;;16.93;11.47;;;12.00;99.90;;;;;;5083338;28;20904;-76
2020/12/18 11:54:43;;;;;;;22.70;12.70;;;12.10;99.90;;;;;;5089732;28;20192;-76
2020/12/18 11:57:08;;;;;;;15.07;10.80;;;12.20;99.90;;;;;;5085421;28;20192;-76
2020/12/18 11:59:34;;;;;;;21.43;12.10;;;12.20;99.90;;;;;;5083243;28;20520;-76
2020/12/18 12:01:59;;;;;;;13.53;10.40;;;12.20;99.90;;;;;;5084865;28;20242;-76
2020/12/18 12:04:25;;;;;;;14.80;11.63;;;12.20;99.90;;;;;;5083937;28;20181;-76
2020/12/18 12:06:50;;;;;;;15.30;11.77;;;12.30;99.90;;;;;;5084780;28;20176;-76
2020/12/18 12:09:16;;;;;;;18.97;11.90;;;12.30;99.90;;;;;;5082928;28;20642;-76
2020/12/18 12:11:42;;;;;;;19.47;12.80;;;12.30;99.90;;;;;;5083589;28;20238;-76
2020/12/18 12:14:08;;;;;;;17.53;10.60;;;12.00;99.90;;;;;;5081974;28;20270;-76
2020/12/18 12:16:35;;;;;;;17.30;11.07;;;11.90;99.90;;;;;;5084351;28;20443;-76
2020/12/18 12:19:01;;;;;;;14.70;9.57;;;11.80;99.90;;;;;;5084862;28;20777;-76
2020/12/18 12:21:34;;;;;;;13.97;11.80;;;11.90;99.90;;;;;;5084485;28;21063;-77
2020/12/18 12:24:00;;;;;;;14.73;11.90;;;11.80;99.90;;;;;;5083616;28;20414;-76
2020/12/18 12:26:25;;;;;;;17.63;12.33;;;11.80;99.90;;;;;;5085812;28;20464;-76
2020/12/18 12:28:51;;;;;;;15.93;11.00;;;11.70;99.90;;;;;;5083193;28;20547;-76
2020/12/18 12:31:17;;;;;;;18.40;10.97;;;11.80;99.90;;;;;;5083086;28;20215;-76
2020/12/18 12:33:42;;;;;;;17.00;12.77;;;11.70;99.90;;;;;;5085503;28;20421;-76
2020/12/18 12:36:08;;;;;;;18.67;11.90;;;11.80;99.90;;;;;;5083579;28;20674;-76
2020/12/18 12:38:34;;;;;;;18.40;12.30;;;11.90;99.90;;;;;;5081788;28;20242;-76
2020/12/18 12:40:59;;;;;;;14.20;11.17;;;11.90;99.90;;;;;;5082942;28;20212;-76
2020/12/18 12:43:25;;;;;;;19.43;11.67;;;11.90;99.90;;;;;;5082334;28;20783;-77